sensor_id;sensor_type;location;lat;lon;timestamp;P1;durP1;ratioP1;P2;durP2;ratioP2
20649;SDS011;10484;48.736;9.332;2024-03-08T00:00:13;20.55;;;15.95;;
20649;SDS011;10484;48.736;9.332;2024-03-08T00:02:39;22.50;;;17.20;;
20649;SDS011;10484;48.736;9.332;2024-03-08T00:05:06;21.55;;;16.88;;
20649;SDS011;10484;48.736;9.332;2024-03-08T00:07:39;22.95;;;16.73;;
20649;SDS011;10484;48.736;9.332;2024-03-08T00:10:05;19.10;;;15.13;;
20649;SDS011;10484;48.736;9.332;2024-03-08T00:12:36;20.17;;;15.70;;
20649;SDS011;10484;48.736;9.332;2024-03-08T00:15:15;20.10;;;14.02;;
20649;SDS011;10484;48.736;9.332;2024-03-08T00:17:41;16.55;;;14.55;;
20649;SDS011;10484;48.736;9.332;2024-03-08T00:20:08;16.42;;;14.20;;
20649;SDS011;10484;48.736;9.332;2024-03-08T00:22:37;19.17;;;14.50;;
20649;SDS011;10484;48.736;9.332;2024-03-08T00:25:03;19.25;;;16.63;;
20649;SDS011;10484;48.736;9.332;2024-03-08T00:27:30;20.23;;;16.60;;
20649;SDS011;10484;48.736;9.332;2024-03-08T00:29:56;20.83;;;16.17;;
20649;SDS011;10484;48.736;9.332;2024-03-08T00:32:22;22.13;;;17.38;;
20649;SDS011;10484;48.736;9.332;2024-03-08T00:34:52;20.05;;;15.23;;
20649;SDS011;10484;48.736;9.332;2024-03-08T00:37:19;21.15;;;16.75;;
20649;SDS011;10484;48.736;9.332;2024-03-08T00:39:46;22.55;;;18.20;;
20649;SDS011;10484;48.736;9.332;2024-03-08T00:42:16;25.60;;;18.60;;
20649;SDS011;10484;48.736;9.332;2024-03-08T00:44:42;22.25;;;16.55;;
20649;SDS011;10484;48.736;9.332;2024-03-08T00:47:08;21.73;;;16.50;;
20649;SDS011;10484;48.736;9.332;2024-03-08T00:49:34;20.02;;;16.65;;
20649;SDS011;10484;48.736;9.332;2024-03-08T00:52:01;24.67;;;17.48;;
20649;SDS011;10484;48.736;9.332;2024-03-08T00:54:27;19.63;;;15.93;;
20649;SDS011;10484;48.736;9.332;2024-03-08T00:56:52;20.47;;;16.47;;
20649;SDS011;10484;48.736;9.332;2024-03-08T00:59:18;20.80;;;17.07;;
20649;SDS011;10484;48.736;9.332;2024-03-08T01:01:44;22.67;;;17.10;;
20649;SDS011;10484;48.736;9.332;2024-03-08T01:04:10;21.42;;;17.50;;
20649;SDS011;10484;48.736;9.332;2024-03-08T01:06:36;19.77;;;16.92;;
20649;SDS011;10484;48.736;9.332;2024-03-08T01:09:02;23.20;;;17.63;;
20649;SDS011;10484;48.736;9.332;2024-03-08T01:11:28;17.90;;;15.97;;
20649;SDS011;10484;48.736;9.332;2024-03-08T01:13:53;25.53;;;17.13;;
20649;SDS011;10484;48.736;9.332;2024-03-08T01:16:19;20.40;;;16.53;;
20649;SDS011;10484;48.736;9.332;2024-03-08T01:18:46;19.55;;;15.20;;
20649;SDS011;10484;48.736;9.332;2024-03-08T01:21:12;23.20;;;16.20;;
20649;SDS011;10484;48.736;9.332;2024-03-08T01:23:38;19.57;;;16.27;;
20649;SDS011;10484;48.736;9.332;2024-03-08T01:26:03;23.33;;;17.00;;
20649;SDS011;10484;48.736;9.332;2024-03-08T01:28:29;20.60;;;16.17;;
20649;SDS011;10484;48.736;9.332;2024-03-08T01:30:55;20.42;;;16.35;;
20649;SDS011;10484;48.736;9.332;2024-03-08T01:33:24;22.37;;;17.07;;
20649;SDS011;10484;48.736;9.332;2024-03-08T01:35:51;23.08;;;16.45;;
20649;SDS011;10484;48.736;9.332;2024-03-08T01:38:17;22.42;;;15.18;;
20649;SDS011;10484;48.736;9.332;2024-03-08T01:40:43;19.90;;;14.20;;
20649;SDS011;10484;48.736;9.332;2024-03-08T01:43:19;21.60;;;15.70;;
20649;SDS011;10484;48.736;9.332;2024-03-08T01:45:44;19.90;;;16.23;;
20649;SDS011;10484;48.736;9.332;2024-03-08T01:48:10;20.90;;;16.13;;
20649;SDS011;10484;48.736;9.332;2024-03-08T01:50:37;19.38;;;15.77;;
20649;SDS011;10484;48.736;9.332;2024-03-08T01:53:04;19.00;;;14.80;;
20649;SDS011;10484;48.736;9.332;2024-03-08T01:55:30;20.20;;;15.82;;
20649;SDS011;10484;48.736;9.332;2024-03-08T01:57:56;20.40;;;15.77;;
20649;SDS011;10484;48.736;9.332;2024-03-08T02:00:24;20.15;;;14.95;;
20649;SDS011;10484;48.736;9.332;2024-03-08T02:02:51;20.52;;;14.55;;
20649;SDS011;10484;48.736;9.332;2024-03-08T02:05:19;20.08;;;16.05;;
20649;SDS011;10484;48.736;9.332;2024-03-08T02:07:46;20.60;;;15.25;;
20649;SDS011;10484;48.736;9.332;2024-03-08T02:10:11;22.63;;;16.20;;
20649;SDS011;10484;48.736;9.332;2024-03-08T02:12:37;19.20;;;13.73;;
20649;SDS011;10484;48.736;9.332;2024-03-08T02:15:04;18.83;;;14.60;;
20649;SDS011;10484;48.736;9.332;2024-03-08T02:17:31;18.27;;;14.98;;
20649;SDS011;10484;48.736;9.332;2024-03-08T02:19:58;21.35;;;15.75;;
20649;SDS011;10484;48.736;9.332;2024-03-08T02:22:28;18.25;;;14.48;;
20649;SDS011;10484;48.736;9.332;2024-03-08T02:24:55;19.02;;;14.73;;
20649;SDS011;10484;48.736;9.332;2024-03-08T02:27:24;20.10;;;15.45;;
20649;SDS011;10484;48.736;9.332;2024-03-08T02:29:50;18.10;;;14.65;;
20649;SDS011;10484;48.736;9.332;2024-03-08T02:32:20;19.73;;;15.57;;
20649;SDS011;10484;48.736;9.332;2024-03-08T02:34:49;17.83;;;15.13;;
20649;SDS011;10484;48.736;9.332;2024-03-08T02:37:16;19.45;;;13.65;;
20649;SDS011;10484;48.736;9.332;2024-03-08T02:39:42;19.42;;;14.95;;
20649;SDS011;10484;48.736;9.332;2024-03-08T02:42:07;20.23;;;13.80;;
20649;SDS011;10484;48.736;9.332;2024-03-08T02:44:33;18.87;;;14.97;;
20649;SDS011;10484;48.736;9.332;2024-03-08T02:46:59;19.50;;;14.90;;
20649;SDS011;10484;48.736;9.332;2024-03-08T02:49:25;19.08;;;15.18;;
20649;SDS011;10484;48.736;9.332;2024-03-08T02:51:51;19.52;;;15.50;;
20649;SDS011;10484;48.736;9.332;2024-03-08T02:54:17;21.63;;;15.82;;
20649;SDS011;10484;48.736;9.332;2024-03-08T02:56:44;20.85;;;15.25;;
20649;SDS011;10484;48.736;9.332;2024-03-08T02:59:11;17.70;;;13.68;;
20649;SDS011;10484;48.736;9.332;2024-03-08T03:01:37;17.77;;;14.88;;
20649;SDS011;10484;48.736;9.332;2024-03-08T03:04:04;19.40;;;15.15;;
20649;SDS011;10484;48.736;9.332;2024-03-08T03:06:29;19.10;;;15.43;;
20649;SDS011;10484;48.736;9.332;2024-03-08T03:08:56;22.48;;;15.40;;
20649;SDS011;10484;48.736;9.332;2024-03-08T03:11:22;20.92;;;15.90;;
20649;SDS011;10484;48.736;9.332;2024-03-08T03:13:48;20.20;;;16.00;;
20649;SDS011;10484;48.736;9.332;2024-03-08T03:16:17;20.30;;;15.60;;
20649;SDS011;10484;48.736;9.332;2024-03-08T03:18:44;21.23;;;16.35;;
20649;SDS011;10484;48.736;9.332;2024-03-08T03:21:10;23.83;;;16.00;;
20649;SDS011;10484;48.736;9.332;2024-03-08T03:23:38;19.63;;;14.73;;
20649;SDS011;10484;48.736;9.332;2024-03-08T03:26:07;21.52;;;17.08;;
20649;SDS011;10484;48.736;9.332;2024-03-08T03:28:33;22.27;;;16.60;;
20649;SDS011;10484;48.736;9.332;2024-03-08T03:30:59;20.53;;;16.87;;
20649;SDS011;10484;48.736;9.332;2024-03-08T03:33:25;20.20;;;15.93;;
20649;SDS011;10484;48.736;9.332;2024-03-08T03:35:51;17.38;;;14.27;;
20649;SDS011;10484;48.736;9.332;2024-03-08T03:38:19;25.77;;;17.08;;
20649;SDS011;10484;48.736;9.332;2024-03-08T03:40:45;20.92;;;16.40;;
20649;SDS011;10484;48.736;9.332;2024-03-08T03:43:13;19.83;;;16.58;;
20649;SDS011;10484;48.736;9.332;2024-03-08T03:45:39;19.27;;;15.73;;
20649;SDS011;10484;48.736;9.332;2024-03-08T03:48:08;20.27;;;16.48;;
20649;SDS011;10484;48.736;9.332;2024-03-08T03:50:36;20.05;;;16.45;;
20649;SDS011;10484;48.736;9.332;2024-03-08T03:53:02;19.67;;;14.47;;
20649;SDS011;10484;48.736;9.332;2024-03-08T03:55:28;20.50;;;14.90;;
20649;SDS011;10484;48.736;9.332;2024-03-08T03:57:54;22.13;;;17.10;;
20649;SDS011;10484;48.736;9.332;2024-03-08T04:00:20;20.33;;;15.73;;
20649;SDS011;10484;48.736;9.332;2024-03-08T04:02:45;22.17;;;16.67;;
20649;SDS011;10484;48.736;9.332;2024-03-08T04:05:14;21.98;;;16.95;;
20649;SDS011;10484;48.736;9.332;2024-03-08T04:07:40;22.90;;;16.27;;
20649;SDS011;10484;48.736;9.332;2024-03-08T04:10:06;19.80;;;16.17;;
20649;SDS011;10484;48.736;9.332;2024-03-08T04:12:34;20.63;;;16.05;;
20649;SDS011;10484;48.736;9.332;2024-03-08T04:15:00;21.50;;;16.80;;
20649;SDS011;10484;48.736;9.332;2024-03-08T04:17:25;23.47;;;16.53;;
20649;SDS011;10484;48.736;9.332;2024-03-08T04:19:51;23.43;;;17.57;;
20649;SDS011;10484;48.736;9.332;2024-03-08T04:22:17;21.23;;;16.63;;
20649;SDS011;10484;48.736;9.332;2024-03-08T04:24:43;22.70;;;18.58;;
20649;SDS011;10484;48.736;9.332;2024-03-08T04:27:09;24.27;;;17.75;;
20649;SDS011;10484;48.736;9.332;2024-03-08T04:29:35;23.50;;;17.43;;
20649;SDS011;10484;48.736;9.332;2024-03-08T04:32:02;20.90;;;16.87;;
20649;SDS011;10484;48.736;9.332;2024-03-08T04:34:29;23.80;;;17.23;;
20649;SDS011;10484;48.736;9.332;2024-03-08T04:36:59;20.40;;;17.10;;
20649;SDS011;10484;48.736;9.332;2024-03-08T04:39:25;22.35;;;16.63;;
20649;SDS011;10484;48.736;9.332;2024-03-08T04:41:54;22.45;;;17.45;;
20649;SDS011;10484;48.736;9.332;2024-03-08T04:44:23;22.48;;;16.83;;
20649;SDS011;10484;48.736;9.332;2024-03-08T04:46:49;24.55;;;17.98;;
20649;SDS011;10484;48.736;9.332;2024-03-08T04:49:15;23.40;;;17.47;;
20649;SDS011;10484;48.736;9.332;2024-03-08T04:51:41;22.63;;;17.63;;
20649;SDS011;10484;48.736;9.332;2024-03-08T04:54:06;24.30;;;18.60;;
20649;SDS011;10484;48.736;9.332;2024-03-08T04:56:32;21.87;;;17.90;;
20649;SDS011;10484;48.736;9.332;2024-03-08T04:58:58;20.75;;;17.00;;
20649;SDS011;10484;48.736;9.332;2024-03-08T05:01:24;22.03;;;17.43;;
20649;SDS011;10484;48.736;9.332;2024-03-08T05:03:49;23.47;;;16.27;;
20649;SDS011;10484;48.736;9.332;2024-03-08T05:06:16;25.02;;;18.98;;
20649;SDS011;10484;48.736;9.332;2024-03-08T05:08:41;22.77;;;17.40;;
20649;SDS011;10484;48.736;9.332;2024-03-08T05:11:07;25.00;;;17.77;;
20649;SDS011;10484;48.736;9.332;2024-03-08T05:13:33;22.47;;;17.07;;
20649;SDS011;10484;48.736;9.332;2024-03-08T05:16:02;24.25;;;18.58;;
20649;SDS011;10484;48.736;9.332;2024-03-08T05:18:28;24.13;;;18.97;;
20649;SDS011;10484;48.736;9.332;2024-03-08T05:20:53;24.87;;;19.10;;
20649;SDS011;10484;48.736;9.332;2024-03-08T05:23:19;24.67;;;18.03;;
20649;SDS011;10484;48.736;9.332;2024-03-08T05:25:45;22.53;;;17.40;;
20649;SDS011;10484;48.736;9.332;2024-03-08T05:28:14;25.38;;;17.90;;
20649;SDS011;10484;48.736;9.332;2024-03-08T05:30:39;24.27;;;18.07;;
20649;SDS011;10484;48.736;9.332;2024-03-08T05:33:05;23.83;;;17.63;;
20649;SDS011;10484;48.736;9.332;2024-03-08T05:35:30;27.13;;;17.67;;
20649;SDS011;10484;48.736;9.332;2024-03-08T05:37:57;25.10;;;18.65;;
20649;SDS011;10484;48.736;9.332;2024-03-08T05:40:23;23.80;;;17.60;;
20649;SDS011;10484;48.736;9.332;2024-03-08T05:42:49;20.88;;;16.67;;
20649;SDS011;10484;48.736;9.332;2024-03-08T05:45:14;25.00;;;19.00;;
20649;SDS011;10484;48.736;9.332;2024-03-08T05:47:40;26.10;;;18.03;;
20649;SDS011;10484;48.736;9.332;2024-03-08T05:50:06;27.55;;;18.77;;
20649;SDS011;10484;48.736;9.332;2024-03-08T05:52:35;23.65;;;18.33;;
20649;SDS011;10484;48.736;9.332;2024-03-08T05:55:01;24.23;;;17.63;;
20649;SDS011;10484;48.736;9.332;2024-03-08T05:57:27;24.23;;;17.75;;
20649;SDS011;10484;48.736;9.332;2024-03-08T05:59:53;28.53;;;19.30;;
20649;SDS011;10484;48.736;9.332;2024-03-08T06:02:18;23.57;;;18.13;;
20649;SDS011;10484;48.736;9.332;2024-03-08T06:04:45;24.67;;;18.30;;
20649;SDS011;10484;48.736;9.332;2024-03-08T06:07:12;24.88;;;18.17;;
20649;SDS011;10484;48.736;9.332;2024-03-08T06:09:37;24.17;;;19.50;;
20649;SDS011;10484;48.736;9.332;2024-03-08T06:12:03;25.42;;;19.17;;
20649;SDS011;10484;48.736;9.332;2024-03-08T06:14:31;28.40;;;20.05;;
20649;SDS011;10484;48.736;9.332;2024-03-08T06:16:57;22.57;;;18.90;;
20649;SDS011;10484;48.736;9.332;2024-03-08T06:19:22;29.87;;;20.00;;
20649;SDS011;10484;48.736;9.332;2024-03-08T06:21:48;25.93;;;19.63;;
20649;SDS011;10484;48.736;9.332;2024-03-08T06:24:14;23.07;;;18.23;;
20649;SDS011;10484;48.736;9.332;2024-03-08T06:26:40;24.05;;;18.90;;
20649;SDS011;10484;48.736;9.332;2024-03-08T06:29:06;24.07;;;18.40;;
20649;SDS011;10484;48.736;9.332;2024-03-08T06:31:34;23.00;;;19.10;;
20649;SDS011;10484;48.736;9.332;2024-03-08T06:34:03;23.90;;;17.85;;
20649;SDS011;10484;48.736;9.332;2024-03-08T06:36:32;23.25;;;17.85;;
20649;SDS011;10484;48.736;9.332;2024-03-08T06:38:59;21.45;;;17.80;;
20649;SDS011;10484;48.736;9.332;2024-03-08T06:41:24;24.70;;;18.45;;
20649;SDS011;10484;48.736;9.332;2024-03-08T06:43:50;23.10;;;18.33;;
20649;SDS011;10484;48.736;9.332;2024-03-08T06:46:17;25.52;;;18.73;;
20649;SDS011;10484;48.736;9.332;2024-03-08T06:48:43;26.85;;;20.48;;
20649;SDS011;10484;48.736;9.332;2024-03-08T06:51:08;23.30;;;18.90;;
20649;SDS011;10484;48.736;9.332;2024-03-08T06:53:35;25.83;;;17.92;;
20649;SDS011;10484;48.736;9.332;2024-03-08T06:56:02;24.98;;;19.05;;
20649;SDS011;10484;48.736;9.332;2024-03-08T06:58:28;23.47;;;18.50;;
20649;SDS011;10484;48.736;9.332;2024-03-08T07:00:53;21.90;;;16.37;;
20649;SDS011;10484;48.736;9.332;2024-03-08T07:03:23;22.55;;;17.58;;
20649;SDS011;10484;48.736;9.332;2024-03-08T07:05:49;24.87;;;19.23;;
20649;SDS011;10484;48.736;9.332;2024-03-08T07:08:14;20.67;;;17.27;;
20649;SDS011;10484;48.736;9.332;2024-03-08T07:10:41;25.80;;;19.48;;
20649;SDS011;10484;48.736;9.332;2024-03-08T07:13:07;21.83;;;18.03;;
20649;SDS011;10484;48.736;9.332;2024-03-08T07:15:32;29.33;;;20.33;;
20649;SDS011;10484;48.736;9.332;2024-03-08T07:17:59;22.17;;;19.53;;
20649;SDS011;10484;48.736;9.332;2024-03-08T07:20:27;22.92;;;17.92;;
20649;SDS011;10484;48.736;9.332;2024-03-08T07:22:53;23.67;;;18.58;;
20649;SDS011;10484;48.736;9.332;2024-03-08T07:25:19;23.38;;;18.70;;
20649;SDS011;10484;48.736;9.332;2024-03-08T07:27:49;22.33;;;18.10;;
20649;SDS011;10484;48.736;9.332;2024-03-08T07:30:19;22.92;;;18.73;;
20649;SDS011;10484;48.736;9.332;2024-03-08T07:33:05;25.98;;;18.08;;
20649;SDS011;10484;48.736;9.332;2024-03-08T07:35:37;24.83;;;18.85;;
20649;SDS011;10484;48.736;9.332;2024-03-08T07:38:06;25.08;;;20.00;;
20649;SDS011;10484;48.736;9.332;2024-03-08T07:40:39;23.65;;;19.10;;
20649;SDS011;10484;48.736;9.332;2024-03-08T07:43:14;25.17;;;18.50;;
20649;SDS011;10484;48.736;9.332;2024-03-08T07:45:39;27.63;;;18.80;;
20649;SDS011;10484;48.736;9.332;2024-03-08T07:48:05;25.47;;;18.10;;
20649;SDS011;10484;48.736;9.332;2024-03-08T07:50:37;24.88;;;19.05;;
20649;SDS011;10484;48.736;9.332;2024-03-08T07:53:04;25.42;;;19.70;;
20649;SDS011;10484;48.736;9.332;2024-03-08T07:55:31;23.58;;;18.42;;
20649;SDS011;10484;48.736;9.332;2024-03-08T07:57:57;24.00;;;18.70;;
20649;SDS011;10484;48.736;9.332;2024-03-08T08:00:23;24.93;;;18.93;;
20649;SDS011;10484;48.736;9.332;2024-03-08T08:02:49;24.75;;;18.65;;
20649;SDS011;10484;48.736;9.332;2024-03-08T08:05:15;23.30;;;17.47;;
20649;SDS011;10484;48.736;9.332;2024-03-08T08:07:44;22.30;;;17.23;;
20649;SDS011;10484;48.736;9.332;2024-03-08T08:10:11;22.52;;;18.17;;
20649;SDS011;10484;48.736;9.332;2024-03-08T08:12:58;24.42;;;18.90;;
20649;SDS011;10484;48.736;9.332;2024-03-08T08:15:23;22.45;;;17.85;;
20649;SDS011;10484;48.736;9.332;2024-03-08T08:17:49;23.03;;;19.53;;
20649;SDS011;10484;48.736;9.332;2024-03-08T08:20:16;27.75;;;20.58;;
20649;SDS011;10484;48.736;9.332;2024-03-08T08:22:43;23.45;;;18.75;;
20649;SDS011;10484;48.736;9.332;2024-03-08T08:25:09;23.73;;;18.40;;
20649;SDS011;10484;48.736;9.332;2024-03-08T08:27:38;28.83;;;20.15;;
20649;SDS011;10484;48.736;9.332;2024-03-08T08:30:09;24.58;;;18.88;;
20649;SDS011;10484;48.736;9.332;2024-03-08T08:32:36;21.60;;;17.85;;
20649;SDS011;10484;48.736;9.332;2024-03-08T08:35:02;23.98;;;17.60;;
20649;SDS011;10484;48.736;9.332;2024-03-08T08:37:29;23.23;;;17.25;;
20649;SDS011;10484;48.736;9.332;2024-03-08T08:39:56;22.98;;;17.52;;
20649;SDS011;10484;48.736;9.332;2024-03-08T08:42:22;23.52;;;18.48;;
20649;SDS011;10484;48.736;9.332;2024-03-08T08:44:48;23.60;;;17.87;;
20649;SDS011;10484;48.736;9.332;2024-03-08T08:47:15;23.75;;;17.50;;
20649;SDS011;10484;48.736;9.332;2024-03-08T08:49:45;24.17;;;18.70;;
20649;SDS011;10484;48.736;9.332;2024-03-08T08:52:14;26.45;;;19.67;;
20649;SDS011;10484;48.736;9.332;2024-03-08T08:54:41;21.02;;;16.67;;
20649;SDS011;10484;48.736;9.332;2024-03-08T08:57:09;21.75;;;17.52;;
20649;SDS011;10484;48.736;9.332;2024-03-08T08:59:35;22.23;;;17.70;;
20649;SDS011;10484;48.736;9.332;2024-03-08T09:02:01;25.23;;;18.37;;
20649;SDS011;10484;48.736;9.332;2024-03-08T09:04:28;24.02;;;19.00;;
20649;SDS011;10484;48.736;9.332;2024-03-08T09:06:55;20.92;;;16.15;;
20649;SDS011;10484;48.736;9.332;2024-03-08T09:09:21;23.63;;;17.02;;
20649;SDS011;10484;48.736;9.332;2024-03-08T09:11:47;22.73;;;18.70;;
20649;SDS011;10484;48.736;9.332;2024-03-08T09:14:14;27.52;;;17.90;;
20649;SDS011;10484;48.736;9.332;2024-03-08T09:16:40;23.27;;;18.50;;
20649;SDS011;10484;48.736;9.332;2024-03-08T09:19:05;22.43;;;17.07;;
20649;SDS011;10484;48.736;9.332;2024-03-08T09:21:32;22.33;;;17.17;;
20649;SDS011;10484;48.736;9.332;2024-03-08T09:23:58;22.30;;;17.92;;
20649;SDS011;10484;48.736;9.332;2024-03-08T09:26:23;23.80;;;16.23;;
20649;SDS011;10484;48.736;9.332;2024-03-08T09:28:49;21.47;;;16.57;;
20649;SDS011;10484;48.736;9.332;2024-03-08T09:31:14;21.00;;;16.20;;
20649;SDS011;10484;48.736;9.332;2024-03-08T09:33:41;23.20;;;17.60;;
20649;SDS011;10484;48.736;9.332;2024-03-08T09:36:07;21.98;;;16.50;;
20649;SDS011;10484;48.736;9.332;2024-03-08T09:38:33;23.63;;;16.23;;
20649;SDS011;10484;48.736;9.332;2024-03-08T09:41:01;20.75;;;15.70;;
20649;SDS011;10484;48.736;9.332;2024-03-08T09:43:29;21.77;;;15.80;;
20649;SDS011;10484;48.736;9.332;2024-03-08T09:45:55;21.63;;;15.93;;
20649;SDS011;10484;48.736;9.332;2024-03-08T09:48:22;21.30;;;16.27;;
20649;SDS011;10484;48.736;9.332;2024-03-08T09:50:47;20.17;;;15.70;;
20649;SDS011;10484;48.736;9.332;2024-03-08T09:53:14;20.08;;;16.98;;
20649;SDS011;10484;48.736;9.332;2024-03-08T09:55:40;19.60;;;15.90;;
20649;SDS011;10484;48.736;9.332;2024-03-08T09:58:11;17.02;;;14.80;;
20649;SDS011;10484;48.736;9.332;2024-03-08T10:00:52;21.95;;;16.13;;
20649;SDS011;10484;48.736;9.332;2024-03-08T10:03:21;17.90;;;15.33;;
20649;SDS011;10484;48.736;9.332;2024-03-08T10:05:47;24.20;;;17.05;;
20649;SDS011;10484;48.736;9.332;2024-03-08T10:08:13;19.90;;;16.77;;
20649;SDS011;10484;48.736;9.332;2024-03-08T10:10:39;20.73;;;17.13;;
20649;SDS011;10484;48.736;9.332;2024-03-08T10:13:05;20.60;;;16.00;;
20649;SDS011;10484;48.736;9.332;2024-03-08T10:15:34;21.27;;;16.58;;
20649;SDS011;10484;48.736;9.332;2024-03-08T10:18:00;20.58;;;16.02;;
20649;SDS011;10484;48.736;9.332;2024-03-08T10:20:30;18.05;;;15.02;;
20649;SDS011;10484;48.736;9.332;2024-03-08T10:23:02;20.65;;;16.08;;
20649;SDS011;10484;48.736;9.332;2024-03-08T10:25:30;21.40;;;16.35;;
20649;SDS011;10484;48.736;9.332;2024-03-08T10:27:56;22.42;;;17.25;;
20649;SDS011;10484;48.736;9.332;2024-03-08T10:30:21;22.37;;;16.27;;
20649;SDS011;10484;48.736;9.332;2024-03-08T10:32:48;22.30;;;17.80;;
20649;SDS011;10484;48.736;9.332;2024-03-08T10:35:13;21.23;;;16.80;;
20649;SDS011;10484;48.736;9.332;2024-03-08T10:37:46;21.13;;;15.93;;
20649;SDS011;10484;48.736;9.332;2024-03-08T10:40:23;21.98;;;16.83;;
20649;SDS011;10484;48.736;9.332;2024-03-08T10:42:54;20.52;;;16.05;;
20649;SDS011;10484;48.736;9.332;2024-03-08T10:51:00;17.55;;;14.80;;
20649;SDS011;10484;48.736;9.332;2024-03-08T10:53:27;21.75;;;16.17;;
20649;SDS011;10484;48.736;9.332;2024-03-08T10:55:57;19.08;;;15.65;;
20649;SDS011;10484;48.736;9.332;2024-03-08T10:58:23;20.25;;;16.45;;
20649;SDS011;10484;48.736;9.332;2024-03-08T11:00:56;21.08;;;16.30;;
20649;SDS011;10484;48.736;9.332;2024-03-08T11:06:11;19.70;;;15.90;;
20649;SDS011;10484;48.736;9.332;2024-03-08T11:08:40;19.52;;;16.90;;
20649;SDS011;10484;48.736;9.332;2024-03-08T11:11:22;23.83;;;16.40;;
20649;SDS011;10484;48.736;9.332;2024-03-08T11:13:52;20.98;;;16.42;;
20649;SDS011;10484;48.736;9.332;2024-03-08T11:19:33;21.10;;;15.85;;
20649;SDS011;10484;48.736;9.332;2024-03-08T11:21:40;20.38;;;15.60;;
20649;SDS011;10484;48.736;9.332;2024-03-08T11:24:10;21.10;;;16.20;;
20649;SDS011;10484;48.736;9.332;2024-03-08T11:26:38;20.35;;;16.15;;
20649;SDS011;10484;48.736;9.332;2024-03-08T11:34:35;21.58;;;16.20;;
20649;SDS011;10484;48.736;9.332;2024-03-08T11:37:05;21.10;;;16.10;;
20649;SDS011;10484;48.736;9.332;2024-03-08T11:39:37;25.07;;;18.90;;
20649;SDS011;10484;48.736;9.332;2024-03-08T11:42:05;22.10;;;16.37;;
20649;SDS011;10484;48.736;9.332;2024-03-08T11:44:31;23.70;;;18.20;;
20649;SDS011;10484;48.736;9.332;2024-03-08T11:46:57;22.13;;;17.40;;
20649;SDS011;10484;48.736;9.332;2024-03-08T11:49:23;23.17;;;17.40;;
20649;SDS011;10484;48.736;9.332;2024-03-08T11:51:51;21.97;;;17.60;;
20649;SDS011;10484;48.736;9.332;2024-03-08T11:54:18;20.63;;;16.13;;
20649;SDS011;10484;48.736;9.332;2024-03-08T11:56:44;21.17;;;16.73;;
20649;SDS011;10484;48.736;9.332;2024-03-08T11:59:12;19.50;;;16.00;;
20649;SDS011;10484;48.736;9.332;2024-03-08T12:01:39;22.67;;;17.83;;
20649;SDS011;10484;48.736;9.332;2024-03-08T12:04:04;19.90;;;15.67;;
20649;SDS011;10484;48.736;9.332;2024-03-08T12:06:37;19.60;;;15.80;;
20649;SDS011;10484;48.736;9.332;2024-03-08T12:09:07;21.37;;;17.07;;
20649;SDS011;10484;48.736;9.332;2024-03-08T12:11:36;19.90;;;16.50;;
20649;SDS011;10484;48.736;9.332;2024-03-08T12:14:03;22.53;;;16.40;;
20649;SDS011;10484;48.736;9.332;2024-03-08T12:16:28;23.00;;;17.30;;
20649;SDS011;10484;48.736;9.332;2024-03-08T12:18:55;20.90;;;16.00;;
20649;SDS011;10484;48.736;9.332;2024-03-08T12:21:20;18.23;;;15.90;;
20649;SDS011;10484;48.736;9.332;2024-03-08T12:23:51;17.87;;;14.83;;
20649;SDS011;10484;48.736;9.332;2024-03-08T12:26:34;20.20;;;16.40;;
20649;SDS011;10484;48.736;9.332;2024-03-08T12:29:14;21.60;;;16.77;;
20649;SDS011;10484;48.736;9.332;2024-03-08T12:31:42;21.87;;;16.90;;
20649;SDS011;10484;48.736;9.332;2024-03-08T12:34:08;20.43;;;15.93;;
20649;SDS011;10484;48.736;9.332;2024-03-08T12:36:35;22.63;;;18.47;;
20649;SDS011;10484;48.736;9.332;2024-03-08T12:39:01;20.60;;;16.20;;
20649;SDS011;10484;48.736;9.332;2024-03-08T12:41:28;25.70;;;17.20;;
20649;SDS011;10484;48.736;9.332;2024-03-08T12:43:54;24.20;;;15.83;;
20649;SDS011;10484;48.736;9.332;2024-03-08T12:46:21;22.30;;;17.03;;
20649;SDS011;10484;48.736;9.332;2024-03-08T12:48:47;20.07;;;16.80;;
20649;SDS011;10484;48.736;9.332;2024-03-08T12:51:13;23.63;;;18.27;;
20649;SDS011;10484;48.736;9.332;2024-03-08T12:53:40;18.80;;;16.80;;
20649;SDS011;10484;48.736;9.332;2024-03-08T12:56:10;21.23;;;17.90;;
20649;SDS011;10484;48.736;9.332;2024-03-08T12:58:44;23.43;;;17.90;;
20649;SDS011;10484;48.736;9.332;2024-03-08T13:01:09;22.30;;;17.60;;
20649;SDS011;10484;48.736;9.332;2024-03-08T13:03:37;20.90;;;16.77;;
20649;SDS011;10484;48.736;9.332;2024-03-08T13:06:03;22.07;;;17.50;;
20649;SDS011;10484;48.736;9.332;2024-03-08T13:08:34;20.17;;;17.00;;
20649;SDS011;10484;48.736;9.332;2024-03-08T13:11:01;26.63;;;17.20;;
20649;SDS011;10484;48.736;9.332;2024-03-08T13:13:28;21.07;;;16.97;;
20649;SDS011;10484;48.736;9.332;2024-03-08T13:15:54;22.63;;;17.50;;
20649;SDS011;10484;48.736;9.332;2024-03-08T13:18:21;19.90;;;16.00;;
20649;SDS011;10484;48.736;9.332;2024-03-08T13:20:47;19.93;;;16.73;;
20649;SDS011;10484;48.736;9.332;2024-03-08T13:23:16;20.40;;;16.97;;
20649;SDS011;10484;48.736;9.332;2024-03-08T13:25:42;18.73;;;15.37;;
20649;SDS011;10484;48.736;9.332;2024-03-08T13:28:08;19.03;;;15.50;;
20649;SDS011;10484;48.736;9.332;2024-03-08T13:30:35;18.93;;;15.90;;
20649;SDS011;10484;48.736;9.332;2024-03-08T13:33:01;22.20;;;17.10;;
20649;SDS011;10484;48.736;9.332;2024-03-08T13:35:29;22.47;;;17.77;;
20649;SDS011;10484;48.736;9.332;2024-03-08T13:37:55;19.27;;;15.53;;
20649;SDS011;10484;48.736;9.332;2024-03-08T13:40:21;21.13;;;17.37;;
20649;SDS011;10484;48.736;9.332;2024-03-08T13:42:47;19.13;;;15.47;;
20649;SDS011;10484;48.736;9.332;2024-03-08T13:45:16;19.60;;;17.17;;
20649;SDS011;10484;48.736;9.332;2024-03-08T13:47:47;19.83;;;16.60;;
20649;SDS011;10484;48.736;9.332;2024-03-08T13:50:14;20.00;;;16.73;;
20649;SDS011;10484;48.736;9.332;2024-03-08T13:52:46;21.73;;;15.60;;
20649;SDS011;10484;48.736;9.332;2024-03-08T13:55:16;20.33;;;16.87;;
20649;SDS011;10484;48.736;9.332;2024-03-08T13:57:47;18.87;;;16.77;;
20649;SDS011;10484;48.736;9.332;2024-03-08T14:00:13;19.37;;;16.67;;
20649;SDS011;10484;48.736;9.332;2024-03-08T14:02:40;20.67;;;16.33;;
20649;SDS011;10484;48.736;9.332;2024-03-08T14:05:09;19.50;;;16.33;;
20649;SDS011;10484;48.736;9.332;2024-03-08T14:07:36;19.93;;;16.80;;
20649;SDS011;10484;48.736;9.332;2024-03-08T14:10:01;18.40;;;15.30;;
20649;SDS011;10484;48.736;9.332;2024-03-08T14:12:28;19.60;;;15.93;;
20649;SDS011;10484;48.736;9.332;2024-03-08T14:14:53;20.77;;;17.00;;
20649;SDS011;10484;48.736;9.332;2024-03-08T14:17:19;20.30;;;16.80;;
20649;SDS011;10484;48.736;9.332;2024-03-08T14:19:45;17.50;;;15.67;;
20649;SDS011;10484;48.736;9.332;2024-03-08T14:22:11;20.97;;;16.67;;
20649;SDS011;10484;48.736;9.332;2024-03-08T14:24:39;21.50;;;15.93;;
20649;SDS011;10484;48.736;9.332;2024-03-08T14:27:07;21.30;;;16.63;;
20649;SDS011;10484;48.736;9.332;2024-03-08T14:29:34;20.73;;;16.50;;
20649;SDS011;10484;48.736;9.332;2024-03-08T14:32:00;18.30;;;16.30;;
20649;SDS011;10484;48.736;9.332;2024-03-08T14:34:28;20.83;;;16.33;;
20649;SDS011;10484;48.736;9.332;2024-03-08T14:36:55;18.33;;;16.37;;